Latest Weather Observations for Outer Harbor (Black Pole)

IDS60801

Issued at 10:05 pm CDT Friday 31 October 2014 (issued every 30 minutes, with the page automatically refreshed every 10 minutes)

About weather observations | Map of weather stations | Latest weather observations for SA | Other Formats
Station Details ID: 023052 Name: BLACK POLE Lat: -34.73 Lon: 138.47 Height: 8.0 m
Data from the previous 72 hours. | See also: Recent months for locations in South Australia
Date/Time
CDT
Temp
°C
App
Temp
°C
Dew
Point
Rel
Hum
%
Delta-T
°C
Wind Press
QNH
hPa
Press
MSL
hPa
Rain
since 9 am
mm
Dir
 
Spd
km/h
Gust
km/h
Spd
kts
Gust
kts
31/10:00pm - - - - - SSW 24 30 13 16 - - -
31/09:30pm - - - - - S 26 35 14 19 - - -
31/09:00pm - - - - - SSW 33 39 18 21 - - -
31/08:30pm - - - - - SSW 35 43 19 23 - - -
31/08:26pm - - - - - SSW 35 43 19 23 - - -
31/08:00pm - - - - - WSW 43 52 23 28 - - -
31/07:30pm - - - - - WSW 43 50 23 27 - - -
31/07:00pm - - - - - SW 41 50 22 27 - - -
31/06:30pm - - - - - SW 33 43 18 23 - - -
31/06:00pm - - - - - SW 30 37 16 20 - - -
31/05:30pm - - - - - SSW 32 37 17 20 - - -
31/05:00pm - - - - - SSW 33 41 18 22 - - -
31/04:30pm - - - - - SSW 35 41 19 22 - - -
31/04:00pm - - - - - SSW 39 46 21 25 - - -
31/03:30pm - - - - - SW 24 37 13 20 - - -
31/03:00pm - - - - - WSW 19 22 10 12 - - -
31/02:30pm - - - - - W 20 24 11 13 - - -
31/02:00pm - - - - - WNW 17 20 9 11 - - -
31/01:30pm - - - - - NW 24 28 13 15 - - -
31/01:00pm - - - - - NW 26 30 14 16 - - -
31/12:30pm - - - - - NW 32 35 17 19 - - -
31/12:00pm - - - - - NW 24 28 13 15 - - -
31/11:30am - - - - - NW 19 24 10 13 - - -
31/11:00am - - - - - N 24 32 13 17 - - -
31/10:30am - - - - - NNE 26 32 14 17 - - -
31/10:00am - - - - - NE 22 28 12 15 - - -
31/09:30am - - - - - NE 22 26 12 14 - - -
31/09:00am - - - - - NE 28 33 15 18 - - -
31/08:30am - - - - - NE 28 32 15 17 - - -
31/08:00am - - - - - NE 28 33 15 18 - - -
31/07:30am - - - - - NE 32 39 17 21 - - -
31/07:00am - - - - - NE 28 35 15 19 - - -
31/06:30am - - - - - NE 24 30 13 16 - - -
31/06:00am - - - - - NE 19 22 10 12 - - -
31/05:30am - - - - - NE 22 26 12 14 - - -
31/05:00am - - - - - NE 15 19 8 10 - - -
31/04:30am - - - - - NNE 15 20 8 11 - - -
31/04:00am - - - - - NNE 15 19 8 10 - - -
31/03:30am - - - - - NNE 15 19 8 10 - - -
31/03:00am - - - - - NNE 9 11 5 6 - - -
31/02:30am - - - - - NNE 11 13 6 7 - - -
31/02:00am - - - - - NNE 17 19 9 10 - - -
31/01:30am - - - - - N 9 11 5 6 - - -
31/01:00am - - - - - NW 7 11 4 6 - - -
31/12:30am - - - - - NNE 9 11 5 6 - - -
31/12:00am - - - - - NNE 9 11 5 6 - - -
 
Date/Time
CDT
Temp
°C
App
Temp
°C
Dew
Point
Rel
Hum
%
Delta-T
°C
Wind Press
QNH
hPa
Press
MSL
hPa
Rain
since 9 am
mm
Dir
 
Spd
km/h
Gust
km/h
Spd
kts
Gust
kts
30/11:30pm - - - - - NE 9 11 5 6 - - -
30/11:00pm - - - - - ENE 6 11 3 6 - - -
30/10:30pm - - - - - S 2 4 1 2 - - -
30/10:00pm - - - - - S 6 7 3 4 - - -
30/09:30pm - - - - - S 7 9 4 5 - - -
30/09:00pm - - - - - S 11 15 6 8 - - -
30/08:30pm - - - - - S 15 17 8 9 - - -
30/08:00pm - - - - - S 15 17 8 9 - - -
30/07:30pm - - - - - S 17 20 9 11 - - -
30/07:00pm - - - - - S 22 26 12 14 - - -
30/06:30pm - - - - - S 26 30 14 16 - - -
30/06:00pm - - - - - S 24 30 13 16 - - -
30/05:30pm - - - - - SSW 22 26 12 14 - - -
30/05:00pm - - - - - SSW 22 26 12 14 - - -
30/04:30pm - - - - - SW 24 28 13 15 - - -
30/04:00pm - - - - - SW 22 24 12 13 - - -
30/03:30pm - - - - - SW 22 24 12 13 - - -
30/03:00pm - - - - - SSW 13 15 7 8 - - -
30/02:30pm - - - - - SSW 15 17 8 9 - - -
30/02:00pm - - - - - SSW 20 22 11 12 - - -
30/01:30pm - - - - - SW 20 24 11 13 - - -
30/01:00pm - - - - - SW 22 26 12 14 - - -
30/12:30pm - - - - - SW 22 24 12 13 - - -
30/12:00pm - - - - - WSW 11 13 6 7 - - -
30/11:30am - - - - - WSW 9 11 5 6 - - -
30/11:00am - - - - - SW 9 11 5 6 - - -
30/10:30am - - - - - WSW 6 7 3 4 - - -
30/10:00am - - - - - ENE 6 9 3 5 - - -
30/09:30am - - - - - ENE 9 11 5 6 - - -
30/09:00am - - - - - E 7 11 4 6 - - -
30/08:30am - - - - - ESE 7 11 4 6 - - -
30/08:00am - - - - - ENE 11 17 6 9 - - -
30/07:30am - - - - - ENE 15 17 8 9 - - -
30/07:00am - - - - - NE 22 26 12 14 - - -
30/06:30am - - - - - NE 13 17 7 9 - - -
30/06:00am - - - - - NE 15 17 8 9 - - -
30/05:30am - - - - - ESE 2 6 1 3 - - -
30/05:00am - - - - - NE 9 11 5 6 - - -
30/04:30am - - - - - ENE 17 19 9 10 - - -
30/04:00am - - - - - NE 13 15 7 8 - - -
30/03:30am - - - - - NE 13 17 7 9 - - -
30/03:00am - - - - - NE 13 15 7 8 - - -
30/02:30am - - - - - NE 15 17 8 9 - - -
30/02:00am - - - - - ENE 11 13 6 7 - - -
30/01:30am - - - - - SE 6 7 3 4 - - -
30/01:00am - - - - - S 9 13 5 7 - - -
30/12:30am - - - - - SSE 15 20 8 11 - - -
30/12:00am - - - - - SSW 22 24 12 13 - - -
 
Date/Time
CDT
Temp
°C
App
Temp
°C
Dew
Point
Rel
Hum
%
Delta-T
°C
Wind Press
QNH
hPa
Press
MSL
hPa
Rain
since 9 am
mm
Dir
 
Spd
km/h
Gust
km/h
Spd
kts
Gust
kts
29/11:30pm - - - - - SSW 13 15 7 8 - - -
29/11:00pm - - - - - SSW 19 22 10 12 - - -
29/10:30pm - - - - - SSW 20 26 11 14 - - -
29/10:00pm - - - - - SSW 22 26 12 14 - - -
29/09:30pm - - - - - SSW 22 28 12 15 - - -
29/09:00pm - - - - - SSW 26 32 14 17 - - -
29/08:30pm - - - - - SSW 24 28 13 15 - - -
29/08:00pm - - - - - SSW 30 35 16 19 - - -
29/07:30pm - - - - - S 30 35 16 19 - - -
29/07:00pm - - - - - SSW 30 33 16 18 - - -
29/06:30pm - - - - - S 30 33 16 18 - - -
29/06:00pm - - - - - SSW 30 33 16 18 - - -
29/05:30pm - - - - - S 28 32 15 17 - - -
29/05:00pm - - - - - SSW 26 30 14 16 - - -
29/04:30pm - - - - - SSW 24 26 13 14 - - -
29/04:00pm - - - - - S 19 22 10 12 - - -
29/03:30pm - - - - - SSW 17 19 9 10 - - -
29/03:00pm - - - - - S 15 17 8 9 - - -
29/02:30pm - - - - - S 13 15 7 8 - - -
29/02:00pm - - - - - SSW 15 17 8 9 - - -
29/01:30pm - - - - - SW 15 19 8 10 - - -
29/01:00pm - - - - - WSW 17 22 9 12 - - -
29/12:30pm - - - - - W 17 20 9 11 - - -
29/12:00pm - - - - - W 17 20 9 11 - - -
29/11:30am - - - - - W 17 20 9 11 - - -
29/11:00am - - - - - NW 17 19 9 10 - - -
29/10:30am - - - - - NNW 13 17 7 9 - - -
29/10:00am - - - - - N 9 13 5 7 - - -
29/09:30am - - - - - NNE 13 19 7 10 - - -
29/09:00am - - - - - N 17 20 9 11 - - -
29/08:30am - - - - - NNE 15 19 8 10 - - -
29/08:00am - - - - - NNE 17 19 9 10 - - -
29/07:30am - - - - - NNE 17 19 9 10 - - -
29/07:00am - - - - - NE 15 19 8 10 - - -
29/06:30am - - - - - NNE 15 17 8 9 - - -
29/06:00am - - - - - NNE 15 19 8 10 - - -
29/05:30am - - - - - NNE 17 19 9 10 - - -
29/05:00am - - - - - NE 15 17 8 9 - - -
29/04:30am - - - - - NE 17 20 9 11 - - -
29/04:00am - - - - - NNE 17 20 9 11 - - -
29/03:30am - - - - - NNE 15 17 8 9 - - -
29/03:00am - - - - - NE 15 17 8 9 - - -
29/02:30am - - - - - NE 9 13 5 7 - - -
29/02:00am - - - - - NE 9 11 5 6 - - -
29/01:30am - - - - - E 2 9 1 5 - - -
29/01:00am - - - - - SW 4 7 2 4 - - -
29/12:30am - - - - - SSW 6 9 3 5 - - -
29/12:00am - - - - - SW 11 15 6 8 - - -
 
Date/Time
CDT
Temp
°C
App
Temp
°C
Dew
Point
Rel
Hum
%
Delta-T
°C
Wind Press
QNH
hPa
Press
MSL
hPa
Rain
since 9 am
mm
Dir
 
Spd
km/h
Gust
km/h
Spd
kts
Gust
kts
28/11:30pm - - - - - SSW 17 20 9 11 - - -
28/11:00pm - - - - - SSW 17 20 9 11 - - -
28/10:30pm - - - - - SSW 17 22 9 12 - - -

Other Formats:

Comma delimited format used in spreadsheet applications
http://www.bom.gov.au/fwo/IDS60801/IDS60801.95675.axf

JavaScript Object Notation format (JSON) in row-major order
http://www.bom.gov.au/fwo/IDS60801/IDS60801.95675.json